Time;durP1;ratioP1;P1;durP2;ratioP2;P2;SDS_P1;SDS_P2;PMS_P1;PMS_P2;Temp;Humidity;BMP_temperature;BMP_pressure;BME280_temperature;BME280_humidity;BME280_pressure;Samples;Min_cycle;Max_cycle;Signal;HPM_P1;HPM_P2
2022/11/12 00:01:00;;;;;;;10.88;7.18;;;9.90;99.90;;;;;;5076249;28;20553;-68
2022/11/12 00:03:26;;;;;;;10.43;6.57;;;10.00;99.90;;;;;;5077463;28;20044;-69
2022/11/12 00:05:54;;;;;;;10.93;6.90;;;9.80;99.90;;;;;;5077450;28;20032;-68
2022/11/12 00:08:20;;;;;;;10.50;6.20;;;9.90;99.90;;;;;;5077161;28;20044;-68
2022/11/12 00:10:49;;;;;;;8.70;6.20;;;9.90;99.90;;;;;;5077220;28;20139;-68
2022/11/12 00:13:19;;;;;;;15.85;8.88;;;9.90;99.90;;;;;;5077113;28;20040;-69
2022/11/12 00:15:46;;;;;;;14.95;8.00;;;10.00;99.90;;;;;;5075978;28;20033;-68
2022/11/12 00:18:13;;;;;;;13.73;8.57;;;9.90;99.90;;;;;;5075241;28;20047;-68
2022/11/12 00:20:40;;;;;;;17.83;11.05;;;9.90;99.90;;;;;;5076915;28;20044;-68
2022/11/12 00:23:07;;;;;;;21.77;11.48;;;9.90;99.90;;;;;;5072762;28;20041;-68
2022/11/12 00:25:33;;;;;;;18.70;10.98;;;9.90;99.90;;;;;;5062198;28;20068;-69
2022/11/12 00:28:07;;;;;;;25.27;14.55;;;9.80;99.90;;;;;;5054921;28;20052;-68
2022/11/12 00:30:35;;;;;;;23.58;14.88;;;9.80;99.90;;;;;;5054750;28;20115;-69
2022/11/12 00:33:03;;;;;;;23.10;14.02;;;9.90;99.90;;;;;;5057113;28;20041;-68
2022/11/12 00:35:31;;;;;;;29.00;14.75;;;9.90;99.90;;;;;;5055525;28;20033;-69
2022/11/12 00:37:59;;;;;;;25.10;14.07;;;9.90;99.90;;;;;;5055438;28;20459;-69
2022/11/12 00:40:26;;;;;;;24.02;13.95;;;9.90;99.90;;;;;;5056771;28;20132;-69
2022/11/12 00:42:53;;;;;;;23.38;13.57;;;9.80;99.90;;;;;;5056867;28;20496;-69
2022/11/12 00:45:22;;;;;;;24.35;13.93;;;9.70;99.90;;;;;;5038739;28;20041;-69
2022/11/12 00:47:48;;;;;;;20.05;13.52;;;9.60;99.90;;;;;;5056538;28;20045;-69
2022/11/12 00:50:17;;;;;;;20.30;12.18;;;9.50;99.90;;;;;;5056422;28;20045;-69
2022/11/12 00:52:43;;;;;;;23.85;13.32;;;9.50;99.90;;;;;;5056159;28;20525;-69
2022/11/12 00:55:10;;;;;;;26.15;14.57;;;9.50;99.90;;;;;;5055323;28;20056;-69
2022/11/12 00:57:37;;;;;;;24.27;14.10;;;9.50;99.90;;;;;;5055267;28;20473;-69
2022/11/12 01:00:14;;;;;;;23.58;13.43;;;9.50;99.90;;;;;;5056536;28;20606;-70
2022/11/12 01:02:40;;;;;;;22.48;13.30;;;9.40;99.90;;;;;;5056211;28;20401;-70
2022/11/12 01:05:08;;;;;;;22.77;13.18;;;9.40;99.90;;;;;;5056084;28;20500;-70
2022/11/12 01:07:34;;;;;;;20.55;12.70;;;9.30;99.90;;;;;;5056169;28;20044;-70
2022/11/12 01:10:03;;;;;;;21.25;11.93;;;9.20;99.90;;;;;;5055279;28;20051;-70
2022/11/12 01:12:31;;;;;;;22.80;12.32;;;9.10;99.90;;;;;;5038609;28;20072;-70
2022/11/12 01:15:00;;;;;;;17.60;10.73;;;9.20;99.90;;;;;;5055051;28;20450;-70
2022/11/12 01:17:27;;;;;;;18.50;11.18;;;9.20;99.90;;;;;;5056095;28;20162;-71
2022/11/12 01:19:54;;;;;;;19.42;11.45;;;9.10;99.90;;;;;;5055784;28;20516;-69
2022/11/12 01:22:20;;;;;;;22.95;12.65;;;9.10;99.90;;;;;;5056009;28;20118;-70
2022/11/12 01:24:48;;;;;;;18.23;11.52;;;9.10;99.90;;;;;;5055971;28;20154;-70
2022/11/12 01:27:15;;;;;;;21.38;11.95;;;9.20;99.90;;;;;;5055750;28;20040;-71
2022/11/12 01:29:43;;;;;;;23.02;12.35;;;9.20;99.90;;;;;;5056044;28;20041;-70
2022/11/12 01:32:09;;;;;;;21.02;11.63;;;9.40;99.90;;;;;;5054460;28;20148;-70
2022/11/12 01:34:37;;;;;;;18.27;11.60;;;9.30;99.90;;;;;;5055525;28;20041;-69
2022/11/12 01:37:04;;;;;;;24.33;12.05;;;9.20;99.90;;;;;;5055518;28;20048;-70
2022/11/12 01:39:30;;;;;;;20.75;11.50;;;9.10;99.90;;;;;;5055192;28;20064;-70
2022/11/12 01:41:57;;;;;;;26.00;13.20;;;9.20;99.90;;;;;;5055803;28;20086;-70
2022/11/12 01:44:28;;;;;;;22.73;13.20;;;9.20;99.90;;;;;;5054508;28;20045;-70
2022/11/12 01:47:09;;;;;;;25.17;13.25;;;9.20;99.90;;;;;;5055355;28;20041;-70
2022/11/12 01:49:53;;;;;;;21.13;13.05;;;9.20;99.90;;;;;;5055309;28;20044;-70
2022/11/12 01:52:36;;;;;;;20.80;12.07;;;9.10;99.90;;;;;;5069882;28;20032;-70
2022/11/12 01:55:14;;;;;;;22.40;13.15;;;9.00;99.90;;;;;;5075243;28;20070;-71
2022/11/12 01:58:09;;;;;;;21.92;12.73;;;9.00;99.90;;;;;;5075260;28;20403;-71
2022/11/12 02:00:37;;;;;;;19.98;11.48;;;9.00;99.90;;;;;;5070326;28;20451;-70
2022/11/12 02:03:10;;;;;;;18.88;11.48;;;8.90;99.90;;;;;;5075147;28;20384;-71
2022/11/12 02:05:38;;;;;;;18.45;11.25;;;8.90;99.90;;;;;;5075239;28;20041;-70
2022/11/12 02:08:10;;;;;;;16.98;11.10;;;9.00;99.90;;;;;;5075161;28;20056;-71
2022/11/12 02:10:41;;;;;;;18.40;10.80;;;8.90;99.90;;;;;;5074989;28;20036;-71
2022/11/12 02:15:55;;;;;;;11.82;8.13;;;8.30;99.90;;;;;;5074830;28;20094;-70
2022/11/12 02:18:22;;;;;;;16.38;6.75;;;8.10;99.90;;;;;;5074970;28;20143;-70
2022/11/12 02:20:55;;;;;;;10.20;7.43;;;8.10;99.90;;;;;;5074917;28;20427;-70
2022/11/12 02:23:21;;;;;;;11.63;8.00;;;8.00;99.90;;;;;;5074872;28;20102;-70
2022/11/12 02:25:48;;;;;;;9.95;6.60;;;8.00;99.90;;;;;;5056959;28;20561;-70
2022/11/12 02:28:16;;;;;;;12.50;6.75;;;8.00;99.90;;;;;;5074163;28;20090;-71
2022/11/12 02:30:46;;;;;;;14.38;8.40;;;8.10;99.90;;;;;;5074488;28;20436;-70
2022/11/12 02:33:13;;;;;;;15.00;9.30;;;8.10;99.90;;;;;;5056772;28;20066;-71
2022/11/12 02:35:40;;;;;;;15.48;8.63;;;8.30;99.90;;;;;;5074425;28;20048;-70
2022/11/12 02:38:09;;;;;;;16.13;9.05;;;8.40;99.90;;;;;;5074103;28;20048;-71
2022/11/12 02:40:38;;;;;;;16.90;10.95;;;8.40;99.90;;;;;;5074516;28;20534;-70
2022/11/12 02:43:04;;;;;;;18.58;10.38;;;8.70;99.90;;;;;;5074329;28;20068;-71
2022/11/12 02:45:31;;;;;;;18.55;10.55;;;8.80;99.90;;;;;;5073724;28;20032;-70
2022/11/12 02:47:58;;;;;;;14.68;8.90;;;9.00;99.90;;;;;;5074463;28;20040;-70
2022/11/12 02:50:25;;;;;;;16.98;9.80;;;9.00;99.90;;;;;;5074107;28;20036;-70
2022/11/12 02:52:51;;;;;;;15.63;8.38;;;9.00;99.90;;;;;;5074137;28;20086;-70
2022/11/12 02:55:20;;;;;;;13.20;7.80;;;9.10;99.90;;;;;;5073067;28;20065;-70
2022/11/12 02:57:46;;;;;;;13.63;8.18;;;9.20;99.90;;;;;;5074045;28;20044;-70
2022/11/12 03:00:13;;;;;;;10.77;7.20;;;9.00;99.90;;;;;;5074297;28;20044;-71
2022/11/12 03:02:57;;;;;;;13.93;8.27;;;8.90;99.90;;;;;;5073154;28;20036;-70
2022/11/12 03:05:29;;;;;;;12.20;8.00;;;8.90;99.90;;;;;;5074078;28;20056;-70
2022/11/12 03:07:59;;;;;;;13.95;8.25;;;8.80;99.90;;;;;;5073968;28;20518;-70
2022/11/12 03:10:27;;;;;;;13.05;7.47;;;8.60;99.90;;;;;;5072878;28;20052;-70
2022/11/12 03:12:55;;;;;;;15.00;7.95;;;8.40;99.90;;;;;;5074310;28;20500;-70
2022/11/12 03:15:21;;;;;;;13.05;7.72;;;8.50;99.90;;;;;;5074110;28;20119;-70
2022/11/12 03:17:47;;;;;;;11.38;6.75;;;8.70;99.90;;;;;;5073936;28;20052;-71
2022/11/12 03:20:14;;;;;;;10.18;6.47;;;8.80;99.90;;;;;;5073964;28;20048;-70
2022/11/12 03:22:40;;;;;;;10.32;6.30;;;9.10;99.90;;;;;;5073964;28;20542;-70
2022/11/12 03:25:08;;;;;;;8.38;5.88;;;9.30;99.90;;;;;;5073981;28;20047;-71
2022/11/12 03:27:36;;;;;;;12.88;6.40;;;9.40;99.90;;;;;;5073945;28;20032;-70
2022/11/12 03:30:02;;;;;;;13.38;7.13;;;9.50;99.90;;;;;;5073615;28;20039;-71
2022/11/12 03:32:29;;;;;;;10.98;6.32;;;9.50;99.90;;;;;;5073325;28;20495;-71
2022/11/12 03:34:55;;;;;;;11.40;6.65;;;9.60;99.90;;;;;;5073719;28;20492;-71
2022/11/12 03:37:21;;;;;;;10.55;6.43;;;9.60;99.90;;;;;;5073486;28;20040;-71
2022/11/12 03:39:47;;;;;;;12.70;7.65;;;9.60;99.90;;;;;;5073615;28;20048;-71
2022/11/12 03:42:13;;;;;;;10.27;6.75;;;9.60;99.90;;;;;;5073898;28;20044;-71
2022/11/12 03:44:39;;;;;;;10.95;6.63;;;9.60;99.90;;;;;;5072686;28;20040;-71
2022/11/12 03:47:05;;;;;;;10.18;6.68;;;9.50;99.90;;;;;;5073891;28;20492;-70
2022/11/12 03:49:31;;;;;;;10.63;5.72;;;9.50;99.90;;;;;;5073204;28;20048;-71
2022/11/12 03:51:56;;;;;;;9.20;6.30;;;9.50;99.90;;;;;;5073589;28;20071;-71
2022/11/12 03:54:23;;;;;;;12.38;6.65;;;9.40;99.90;;;;;;5073759;28;20115;-70
2022/11/12 03:56:49;;;;;;;9.63;6.22;;;9.50;99.90;;;;;;5073481;28;20127;-71
2022/11/12 03:59:14;;;;;;;10.57;5.68;;;9.40;99.90;;;;;;5073234;28;20656;-71
2022/11/12 04:01:41;;;;;;;8.20;5.28;;;9.40;99.90;;;;;;5073569;28;20036;-70
2022/11/12 04:04:09;;;;;;;9.55;5.97;;;9.20;99.90;;;;;;5073448;28;20044;-70
2022/11/12 04:09:19;;;;;;;12.50;6.82;;;9.10;99.90;;;;;;5073229;28;20149;-71
2022/11/12 04:11:45;;;;;;;11.85;6.55;;;9.20;99.90;;;;;;5072165;28;20045;-71
2022/11/12 04:14:11;;;;;;;12.20;6.60;;;9.10;99.90;;;;;;5073564;28;20093;-71
2022/11/12 04:22:08;;;;;;;10.15;6.57;;;9.10;99.90;;;;;;5073312;28;20396;-71
2022/11/12 04:27:27;;;;;;;12.23;6.63;;;9.00;99.90;;;;;;5073059;28;20507;-70
2022/11/12 04:32:55;;;;;;;11.70;7.82;;;9.00;99.90;;;;;;5070039;28;20071;-70
2022/11/12 04:35:24;;;;;;;11.85;7.88;;;9.10;99.90;;;;;;5071176;28;20046;-70
2022/11/12 04:37:50;;;;;;;13.35;7.85;;;9.20;99.90;;;;;;5073035;28;20048;-71
2022/11/12 04:45:53;;;;;;;13.70;8.05;;;9.10;99.90;;;;;;5076517;28;20799;-71
2022/11/12 04:48:20;;;;;;;13.10;8.10;;;9.10;99.90;;;;;;5080561;28;20040;-71
2022/11/12 04:50:52;;;;;;;14.15;8.38;;;9.10;99.90;;;;;;5096773;28;20126;-71
2022/11/12 04:53:18;;;;;;;10.90;6.50;;;9.00;99.90;;;;;;5093597;28;20040;-71
2022/11/12 04:55:48;;;;;;;12.23;7.60;;;9.10;99.90;;;;;;5076168;28;20484;-70
2022/11/12 04:58:14;;;;;;;12.27;7.07;;;9.10;99.90;;;;;;5076200;28;20044;-71
2022/11/12 05:00:40;;;;;;;13.50;7.70;;;9.10;99.90;;;;;;5077214;28;20044;-71
2022/11/12 05:03:06;;;;;;;10.50;6.63;;;9.20;99.90;;;;;;5079221;28;20040;-71
2022/11/12 05:05:32;;;;;;;11.32;6.55;;;9.40;99.90;;;;;;5096105;28;20484;-70
2022/11/12 05:08:02;;;;;;;11.23;6.97;;;9.50;99.90;;;;;;5095838;28;20051;-69
2022/11/12 05:10:29;;;;;;;11.27;7.47;;;9.40;99.90;;;;;;5096133;28;20559;-69
2022/11/12 05:12:55;;;;;;;11.18;7.43;;;9.50;99.90;;;;;;5094252;28;20298;-69
2022/11/12 05:15:21;;;;;;;15.98;7.60;;;9.50;99.90;;;;;;5079001;28;20121;-70
2022/11/12 05:17:49;;;;;;;9.73;6.45;;;9.50;99.90;;;;;;5095784;28;20063;-70
2022/11/12 05:20:17;;;;;;;12.07;6.25;;;9.30;99.90;;;;;;5096353;28;20105;-70
2022/11/12 05:22:43;;;;;;;9.30;6.22;;;9.30;99.90;;;;;;5095826;28;20494;-70
2022/11/12 05:25:10;;;;;;;11.32;6.57;;;9.30;99.90;;;;;;5083425;28;20040;-70
2022/11/12 05:27:37;;;;;;;9.55;6.43;;;9.10;99.90;;;;;;5078693;28;20115;-70
2022/11/12 05:30:04;;;;;;;9.73;5.80;;;9.20;99.90;;;;;;5087238;28;20537;-70
2022/11/12 05:32:32;;;;;;;9.85;6.00;;;9.20;99.90;;;;;;5075736;28;20515;-69
2022/11/12 05:34:59;;;;;;;9.45;5.47;;;8.90;99.90;;;;;;5059518;28;20037;-70
2022/11/12 05:37:25;;;;;;;9.57;5.93;;;8.90;99.90;;;;;;5075478;28;20049;-70
2022/11/12 05:39:52;;;;;;;9.10;5.68;;;8.90;99.90;;;;;;5076434;28;20052;-70
2022/11/12 05:42:19;;;;;;;8.88;5.78;;;8.60;99.90;;;;;;5075278;28;20156;-70
2022/11/12 05:44:45;;;;;;;10.30;5.68;;;8.60;99.90;;;;;;5076389;28;20686;-70
2022/11/12 05:47:14;;;;;;;10.02;5.82;;;8.60;99.90;;;;;;5074962;28;20064;-70
2022/11/12 05:49:40;;;;;;;10.88;6.10;;;8.70;99.90;;;;;;5074836;28;20044;-70
2022/11/12 05:52:07;;;;;;;11.93;6.07;;;8.60;99.90;;;;;;5094924;28;20119;-70
2022/11/12 05:54:34;;;;;;;9.45;6.47;;;8.70;99.90;;;;;;5085863;28;20052;-70
2022/11/12 05:57:03;;;;;;;10.40;6.00;;;8.70;99.90;;;;;;5074900;28;20032;-70
2022/11/12 05:59:29;;;;;;;9.77;5.78;;;8.70;99.90;;;;;;5077888;28;20051;-70
2022/11/12 06:01:57;;;;;;;10.45;6.45;;;8.80;99.90;;;;;;5095456;28;20044;-70
2022/11/12 06:04:25;;;;;;;11.68;6.57;;;8.80;99.90;;;;;;5079538;28;20048;-70
2022/11/12 06:06:51;;;;;;;11.25;6.85;;;8.90;99.90;;;;;;5088978;28;20036;-70
2022/11/12 06:09:18;;;;;;;11.73;7.35;;;8.70;99.90;;;;;;5091490;28;20120;-70
2022/11/12 06:11:46;;;;;;;10.82;7.07;;;8.80;99.90;;;;;;5081583;28;20451;-70
2022/11/12 06:14:12;;;;;;;15.18;7.60;;;8.80;99.90;;;;;;5087614;28;20039;-70
2022/11/12 06:16:38;;;;;;;11.40;6.82;;;8.90;99.90;;;;;;5074949;28;20048;-70
2022/11/12 06:19:05;;;;;;;12.77;6.97;;;8.80;99.90;;;;;;5106726;28;20136;-70
2022/11/12 06:21:33;;;;;;;10.48;6.88;;;8.90;99.90;;;;;;5074745;28;20550;-69
2022/11/12 06:24:00;;;;;;;12.50;6.95;;;8.90;99.90;;;;;;5073722;28;20044;-70
2022/11/12 06:26:29;;;;;;;11.60;6.55;;;8.90;99.90;;;;;;5074449;28;20044;-70
2022/11/12 06:28:56;;;;;;;9.75;6.43;;;8.90;99.90;;;;;;5074301;28;20044;-70
2022/11/12 06:31:23;;;;;;;15.20;7.10;;;8.90;99.90;;;;;;5074858;28;20036;-70
2022/11/12 06:33:50;;;;;;;10.95;6.72;;;8.90;99.90;;;;;;5088855;28;20036;-70
2022/11/12 06:36:19;;;;;;;11.40;6.93;;;9.00;99.90;;;;;;5074342;28;20044;-70
2022/11/12 06:38:46;;;;;;;10.43;7.10;;;9.00;99.90;;;;;;5084996;28;20048;-70
2022/11/12 06:41:13;;;;;;;11.13;7.07;;;9.00;99.90;;;;;;5080464;28;20074;-70
2022/11/12 06:43:41;;;;;;;15.20;8.18;;;9.00;99.90;;;;;;5074159;28;20040;-70
2022/11/12 06:46:13;;;;;;;13.93;7.20;;;9.10;99.90;;;;;;5074410;28;20055;-70
2022/11/12 06:48:40;;;;;;;13.88;8.18;;;9.20;99.90;;;;;;5074135;28;20187;-70
2022/11/12 06:51:16;;;;;;;15.80;9.38;;;9.30;99.90;;;;;;5073980;28;20044;-70
2022/11/12 06:53:43;;;;;;;14.27;8.60;;;9.40;99.90;;;;;;5081766;28;20067;-70
2022/11/12 06:56:09;;;;;;;12.65;7.30;;;9.40;99.90;;;;;;5094348;28;20383;-70
2022/11/12 06:58:36;;;;;;;9.45;6.60;;;8.90;99.90;;;;;;5093882;28;20039;-70
2022/11/12 07:01:12;;;;;;;21.45;5.05;;;8.50;99.90;;;;;;5086513;28;20043;-70
2022/11/12 07:03:41;;;;;;;61.22;3.83;;;8.30;99.90;;;;;;5072441;28;20536;-70
2022/11/12 07:06:14;;;;;;;56.75;4.78;;;8.30;99.90;;;;;;5093368;28;20511;-70
2022/11/12 07:08:41;;;;;;;32.10;5.53;;;8.20;99.90;;;;;;5093835;28;20051;-70
2022/11/12 07:11:08;;;;;;;8.90;6.10;;;8.30;99.90;;;;;;5094081;28;20518;-70
2022/11/12 07:13:35;;;;;;;20.98;15.00;;;8.40;99.90;;;;;;5086281;28;20041;-70
2022/11/12 07:16:05;;;;;;;29.80;7.15;;;8.40;99.90;;;;;;5082011;28;20119;-70
2022/11/12 07:18:33;;;;;;;41.55;7.30;;;8.50;99.90;;;;;;5084134;28;20052;-70
2022/11/12 07:21:06;;;;;;;11.48;7.78;;;8.50;99.90;;;;;;5073847;28;20059;-70
2022/11/12 07:23:35;;;;;;;18.10;8.63;;;8.50;99.90;;;;;;5073715;28;20045;-70
2022/11/12 07:26:04;;;;;;;14.90;8.88;;;8.50;99.90;;;;;;5079497;28;20089;-70
2022/11/12 07:28:31;;;;;;;14.55;8.27;;;8.60;99.90;;;;;;5093272;28;20048;-70
2022/11/12 07:31:06;;;;;;;22.85;12.45;;;8.60;99.90;;;;;;5092647;28;20123;-70
2022/11/12 07:33:33;;;;;;;38.05;18.58;;;8.70;99.90;;;;;;5084152;28;20052;-70
2022/11/12 07:36:11;;;;;;;32.17;16.35;;;8.70;99.90;;;;;;5073582;28;20063;-70
2022/11/12 07:38:39;;;;;;;14.70;9.38;;;8.70;99.90;;;;;;5073592;28;20052;-70
2022/11/12 07:41:18;;;;;;;12.63;7.72;;;8.80;99.90;;;;;;5078532;28;20047;-70
2022/11/12 07:43:47;;;;;;;12.30;7.60;;;9.10;99.90;;;;;;5079007;28;20123;-70
2022/11/12 07:46:18;;;;;;;12.48;7.80;;;9.20;99.90;;;;;;5070438;28;20132;-70
2022/11/12 07:48:45;;;;;;;12.00;8.05;;;9.30;99.90;;;;;;5071739;28;20082;-70
2022/11/12 07:51:19;;;;;;;12.05;7.85;;;9.40;99.90;;;;;;5072198;28;20044;-69
2022/11/12 07:53:47;;;;;;;19.98;11.77;;;9.60;99.90;;;;;;5071930;28;20067;-70
2022/11/12 07:56:18;;;;;;;14.20;8.90;;;9.60;99.90;;;;;;5073279;28;20068;-70
2022/11/12 07:58:45;;;;;;;28.05;17.13;;;9.60;99.90;;;;;;5072989;28;20040;-70
2022/11/12 08:01:40;;;;;;;16.88;11.70;;;9.70;99.90;;;;;;5073369;28;20393;-70
2022/11/12 08:04:09;;;;;;;17.55;10.07;;;9.80;99.90;;;;;;5087362;28;20093;-70
2022/11/12 08:06:37;;;;;;;14.15;9.02;;;9.80;99.90;;;;;;5075545;28;20044;-70
2022/11/12 08:09:06;;;;;;;13.70;8.18;;;9.90;99.90;;;;;;5091479;28;20083;-70
2022/11/12 08:11:33;;;;;;;15.13;8.93;;;10.10;99.90;;;;;;5084765;28;20044;-70
2022/11/12 08:14:02;;;;;;;14.70;8.05;;;10.10;99.90;;;;;;5083279;28;20070;-70
2022/11/12 08:16:30;;;;;;;12.73;8.40;;;10.20;99.90;;;;;;5093538;28;20157;-70
2022/11/12 08:18:58;;;;;;;25.48;14.77;;;10.40;99.90;;;;;;5095444;28;20052;-70
2022/11/12 08:21:24;;;;;;;19.27;10.85;;;10.50;99.90;;;;;;5096557;28;20070;-70
2022/11/12 08:23:50;;;;;;;15.27;9.13;;;10.50;99.90;;;;;;5085219;28;20047;-70
2022/11/12 08:26:18;;;;;;;14.57;8.32;;;10.40;99.90;;;;;;5096652;28;20047;-70
2022/11/12 08:28:46;;;;;;;13.32;9.00;;;10.40;99.90;;;;;;5085642;28;20040;-70
2022/11/12 08:31:16;;;;;;;14.15;9.40;;;10.40;99.90;;;;;;5086174;28;20441;-70
2022/11/12 08:33:43;;;;;;;15.23;8.90;;;10.50;99.90;;;;;;5077364;28;20036;-70
2022/11/12 08:36:12;;;;;;;14.75;8.50;;;10.40;99.90;;;;;;5072697;28;20059;-70
2022/11/12 08:38:38;;;;;;;12.52;7.97;;;10.30;99.90;;;;;;5074416;28;20060;-70
2022/11/12 08:41:08;;;;;;;14.45;9.20;;;10.60;99.90;;;;;;5073910;28;20484;-70
2022/11/12 08:43:35;;;;;;;15.55;9.02;;;10.90;99.90;;;;;;5076382;28;20106;-70
2022/11/12 08:46:02;;;;;;;13.68;8.50;;;11.00;99.90;;;;;;5075345;28;20051;-70
2022/11/12 08:48:30;;;;;;;17.77;9.80;;;11.50;99.90;;;;;;5075951;28;20055;-70
2022/11/12 08:50:59;;;;;;;16.17;9.25;;;11.50;99.90;;;;;;5076614;28;20068;-70
2022/11/12 08:53:27;;;;;;;19.90;10.15;;;11.60;99.90;;;;;;5076468;28;20044;-70
2022/11/12 08:55:54;;;;;;;16.23;9.55;;;;;;;;;;5076346;28;20426;-71
2022/11/12 08:58:21;;;;;;;14.88;9.30;;;11.70;99.90;;;;;;5076369;28;20048;-71
2022/11/12 09:00:49;;;;;;;14.70;8.52;;;11.80;99.90;;;;;;5075086;28;20055;-70
2022/11/12 09:03:19;;;;;;;16.95;9.27;;;11.90;99.90;;;;;;5076401;28;20039;-70
2022/11/12 09:05:46;;;;;;;11.98;7.80;;;12.00;99.90;;;;;;5075108;28;20039;-70
2022/11/12 09:08:16;;;;;;;12.10;6.10;;;11.80;99.90;;;;;;5076440;28;20055;-70
2022/11/12 09:10:43;;;;;;;8.75;5.65;;;11.90;99.90;;;;;;5076070;28;20038;-70
2022/11/12 09:13:09;;;;;;;8.05;5.68;;;12.20;99.90;;;;;;5076284;28;20139;-70
2022/11/12 09:15:36;;;;;;;7.45;4.63;;;12.30;99.90;;;;;;5076281;28;20546;-70
2022/11/12 09:18:06;;;;;;;8.30;4.68;;;12.30;99.90;;;;;;5075829;28;20048;-70
2022/11/12 09:20:34;;;;;;;6.82;4.20;;;12.30;99.90;;;;;;5075149;28;20048;-70
2022/11/12 09:23:11;;;;;;;5.18;3.63;;;12.30;99.90;;;;;;5066566;28;20186;-70
2022/11/12 09:25:39;;;;;;;7.10;4.25;;;12.50;99.90;;;;;;5054076;28;20049;-70
2022/11/12 09:28:14;;;;;;;8.27;4.00;;;12.40;99.90;;;;;;5053633;28;20574;-70
2022/11/12 09:30:46;;;;;;;24.48;9.52;;;12.50;99.90;;;;;;5053200;28;20072;-69
2022/11/12 09:33:18;;;;;;;5.18;3.42;;;12.70;99.90;;;;;;5054970;28;20400;-70
2022/11/12 09:35:46;;;;;;;9.25;3.70;;;12.40;99.90;;;;;;5053188;28;20051;-70
2022/11/12 09:38:14;;;;;;;7.10;3.17;;;12.40;99.90;;;;;;5052500;28;20051;-70
2022/11/12 09:41:25;;;;;;;6.90;3.90;;;12.40;99.90;;;;;;5054773;28;20056;-70
2022/11/12 09:43:53;;;;;;;;;;;12.40;99.90;;;;;;5031180;28;20037;-69
2022/11/12 09:46:22;;;;;;;5.97;3.58;;;12.40;99.90;;;;;;5054673;28;19916;-69
2022/11/12 09:48:57;;;;;;;8.20;3.53;;;12.40;99.90;;;;;;5053957;28;20048;-70
2022/11/12 09:51:31;;;;;;;17.02;7.00;;;12.40;99.90;;;;;;5054951;28;20037;-70
2022/11/12 09:54:01;;;;;;;12.07;5.18;;;12.70;99.90;;;;;;5081755;28;20405;-70
2022/11/12 09:56:29;;;;;;;10.20;4.93;;;12.80;99.90;;;;;;5073177;28;20411;-70
2022/11/12 09:58:56;;;;;;;7.93;4.60;;;12.90;99.90;;;;;;5089866;28;20060;-70
2022/11/12 10:01:46;;;;;;;6.78;3.92;;;13.40;99.90;;;;;;5083608;28;20033;-70
2022/11/12 10:04:36;;;;;;;7.80;3.97;;;13.40;99.90;;;;;;5074207;28;20048;-70
2022/11/12 10:07:33;;;;;;;35.10;16.98;;;13.60;99.90;;;;;;5053138;28;20406;-70
2022/11/12 10:09:59;;;;;;;15.95;11.10;;;13.60;99.90;;;;;;5037089;28;20045;-70
2022/11/12 10:12:32;;;;;;;12.05;8.50;;;13.80;99.90;;;;;;5071880;28;20064;-70
2022/11/12 10:18:02;;;;;;;5.03;2.97;;;13.60;99.90;;;;;;5073315;28;20078;-69
2022/11/12 10:20:57;;;;;;;4.57;2.58;;;13.60;99.90;;;;;;5072441;28;20079;-69
2022/11/12 10:23:51;;;;;;;7.63;2.72;;;13.60;99.90;;;;;;5055254;28;20044;-69
2022/11/12 10:26:22;;;;;;;3.47;2.08;;;13.70;99.90;;;;;;5074187;28;20071;-69
2022/11/12 10:28:57;;;;;;;;;;;13.40;99.90;;;;;;5073116;28;20090;-69
2022/11/12 10:31:24;;;;;;;4.28;2.40;;;13.40;99.90;;;;;;5072710;28;19952;-69
2022/11/12 10:33:53;;;;;;;3.70;2.50;;;13.50;99.90;;;;;;5078019;28;20518;-68
2022/11/12 10:36:33;;;;;;;3.92;2.67;;;13.50;99.90;;;;;;5077015;28;20047;-70
2022/11/12 10:38:59;;;;;;;6.50;4.32;;;13.80;99.90;;;;;;5073268;28;20073;-70
2022/11/12 10:41:31;;;;;;;10.35;6.40;;;13.90;99.90;;;;;;5082659;28;20040;-70
2022/11/12 10:44:06;;;;;;;9.80;5.45;;;14.00;99.90;;;;;;5071949;28;20032;-70
2022/11/12 10:46:36;;;;;;;9.13;5.28;;;13.90;99.90;;;;;;5073643;28;20075;-69
2022/11/12 10:49:23;;;;;;;12.90;7.15;;;13.90;99.90;;;;;;5072213;28;20056;-69
2022/11/12 10:51:57;;;;;;;8.13;4.43;;;14.00;99.90;;;;;;5071735;28;20036;-69
2022/11/12 10:54:35;;;;;;;8.80;4.97;;;14.20;99.90;;;;;;5071049;28;20048;-69
2022/11/12 10:57:33;;;;;;;7.32;4.57;;;14.10;99.90;;;;;;5073596;28;20036;-69
2022/11/12 11:00:29;;;;;;;10.95;6.20;;;14.40;99.90;;;;;;5060879;28;20080;-70
2022/11/12 11:02:56;;;;;;;10.15;5.07;;;14.60;99.90;;;;;;5062032;28;20495;-70
2022/11/12 11:05:52;;;;;;;9.18;5.32;;;14.70;99.90;;;;;;5072073;28;20051;-69
2022/11/12 11:08:40;;;;;;;10.07;5.53;;;14.80;99.90;;;;;;5073215;28;20040;-70
2022/11/12 11:11:16;;;;;;;9.65;5.90;;;14.90;99.90;;;;;;5072383;28;20385;-70
2022/11/12 11:13:44;;;;;;;13.50;6.68;;;14.60;99.90;;;;;;5072171;28;20535;-70
2022/11/12 11:16:14;;;;;;;10.07;6.35;;;14.60;99.90;;;;;;5071908;28;20131;-70
2022/11/12 11:18:45;;;;;;;11.95;6.38;;;14.60;99.90;;;;;;5072009;28;20449;-70
2022/11/12 11:21:28;;;;;;;10.30;6.20;;;14.90;99.90;;;;;;5066950;28;20044;-68
2022/11/12 11:24:13;;;;;;;12.60;6.63;;;14.80;99.90;;;;;;5060084;28;20029;-70
2022/11/12 11:27:04;;;;;;;9.63;5.50;;;14.90;99.90;;;;;;5065937;28;20048;-70
2022/11/12 11:29:43;;;;;;;11.15;6.50;;;14.60;99.90;;;;;;5070819;28;20089;-70
2022/11/12 11:32:26;;;;;;;10.07;5.90;;;14.50;99.90;;;;;;5070831;28;20037;-69
2022/11/12 11:35:06;;;;;;;10.25;5.95;;;14.70;99.90;;;;;;5070907;28;20480;-69
2022/11/12 11:37:45;;;;;;;13.35;7.10;;;14.60;99.90;;;;;;5072311;28;20052;-69
2022/11/12 11:40:50;;;;;;;9.38;6.15;;;14.40;99.90;;;;;;5072222;28;20075;-69
2022/11/12 11:43:36;;;;;;;8.60;5.72;;;14.50;99.90;;;;;;5039797;28;20119;-70
2022/11/12 11:46:39;;;;;;;11.38;6.65;;;14.60;99.90;;;;;;5069899;28;20527;-69
2022/11/12 11:49:34;;;;;;;12.27;5.88;;;14.60;99.90;;;;;;5071933;28;20040;-69
2022/11/12 11:52:34;;;;;;;10.63;6.53;;;14.60;99.90;;;;;;5070940;28;20051;-71
2022/11/12 11:55:27;;;;;;;12.82;6.03;;;14.60;99.90;;;;;;5060327;28;20048;-70
2022/11/12 11:58:14;;;;;;;11.85;6.55;;;14.60;99.90;;;;;;5075500;28;20059;-70
2022/11/12 12:01:10;;;;;;;8.80;5.25;;;14.60;99.90;;;;;;5075430;28;20048;-69
2022/11/12 12:04:08;;;;;;;8.00;5.15;;;14.60;99.90;;;;;;5074949;28;20115;-69
2022/11/12 12:06:59;;;;;;;7.93;5.28;;;14.70;99.90;;;;;;5040971;28;20081;-69
2022/11/12 12:09:54;;;;;;;9.13;5.32;;;14.50;99.90;;;;;;5076791;28;20068;-69
2022/11/12 12:12:42;;;;;;;8.10;4.68;;;14.60;99.90;;;;;;5074763;28;20085;-70
2022/11/12 12:15:32;;;;;;;7.90;4.63;;;14.60;99.90;;;;;;5074073;28;20127;-69
2022/11/12 12:18:01;;;;;;;10.35;5.63;;;14.70;99.90;;;;;;5074931;28;20028;-69
2022/11/12 12:20:58;;;;;;;18.13;5.60;;;14.50;99.90;;;;;;5074223;28;20045;-69
2022/11/12 12:23:43;;;;;;;8.52;5.05;;;14.40;99.90;;;;;;5074059;28;20044;-69
2022/11/12 12:26:54;;;;;;;9.57;5.88;;;14.50;99.90;;;;;;5073291;28;20062;-69
2022/11/12 12:29:48;;;;;;;8.43;4.95;;;14.40;99.90;;;;;;5053315;28;20369;-70
2022/11/12 12:32:46;;;;;;;8.80;5.45;;;14.40;99.90;;;;;;5074649;28;20373;-70
2022/11/12 12:35:33;;;;;;;9.73;5.88;;;14.60;99.90;;;;;;5074150;28;20522;-70
2022/11/12 12:38:53;;;;;;;9.10;5.43;;;14.60;99.90;;;;;;5075012;28;20480;-70
2022/11/12 12:42:05;;;;;;;9.63;5.53;;;14.70;99.90;;;;;;5049155;28;20135;-69
2022/11/12 12:44:59;;;;;;;8.15;5.22;;;14.70;99.90;;;;;;5069641;28;20071;-70
2022/11/12 12:47:50;;;;;;;12.45;6.25;;;14.50;99.90;;;;;;5074778;28;20348;-69
2022/11/12 12:50:19;;;;;;;7.65;4.90;;;14.60;99.90;;;;;;5073619;28;20041;-70
2022/11/12 12:53:16;;;;;;;7.15;4.85;;;14.50;99.90;;;;;;5074667;28;20043;-70
2022/11/12 12:55:54;;;;;;;8.05;4.57;;;14.50;99.90;;;;;;5067471;28;20028;-68
2022/11/12 12:58:31;;;;;;;10.45;5.43;;;14.50;99.90;;;;;;5073924;28;20450;-70
2022/11/12 13:01:24;;;;;;;9.93;5.28;;;14.40;99.90;;;;;;5072080;28;20113;-69
2022/11/12 13:04:07;;;;;;;11.95;5.88;;;14.40;99.90;;;;;;5072768;28;20037;-69
2022/11/12 13:06:46;;;;;;;15.80;6.20;;;14.30;99.90;;;;;;5072534;28;20044;-69
2022/11/12 13:09:16;;;;;;;9.35;5.82;;;14.40;99.90;;;;;;5071499;28;20044;-70
2022/11/12 13:14:37;;;;;;;10.90;6.20;;;14.30;99.90;;;;;;5072590;28;20497;-71
2022/11/12 13:17:10;;;;;;;9.63;5.47;;;14.30;99.90;;;;;;5072302;28;20564;-70
2022/11/12 13:19:46;;;;;;;10.18;6.10;;;14.30;99.90;;;;;;5072521;28;20395;-69
2022/11/12 13:22:18;;;;;;;9.07;5.88;;;14.30;99.90;;;;;;5072982;28;20049;-70
2022/11/12 13:25:07;;;;;;;17.30;9.00;;;14.30;99.90;;;;;;5073176;28;20036;-69
2022/11/12 13:28:04;;;;;;;9.88;6.10;;;14.20;99.90;;;;;;5069675;28;20053;-68
2022/11/12 13:30:32;;;;;;;9.85;5.75;;;14.00;99.90;;;;;;5070255;28;20090;-69
2022/11/12 13:33:02;;;;;;;10.25;5.22;;;14.00;99.90;;;;;;5070537;28;20079;-68
2022/11/12 13:35:33;;;;;;;9.77;5.95;;;14.20;99.90;;;;;;5070955;28;20044;-68
2022/11/12 13:38:05;;;;;;;18.73;8.60;;;14.20;99.90;;;;;;5071082;28;20043;-68
2022/11/12 13:40:56;;;;;;;9.88;5.75;;;14.30;99.90;;;;;;5071237;28;20102;-68